createdAt,value
2022-08-31T00:00:38.975Z,98158.59
2022-08-31T00:03:26.103Z,98165.22
2022-08-31T00:06:04.642Z,98153.94
2022-08-31T00:08:33.063Z,98180.41
2022-08-31T00:11:03.899Z,98182.63
2022-08-31T00:13:30.967Z,98163.56
2022-08-31T00:15:57.878Z,98163.06
2022-08-31T00:18:24.575Z,98177.72
2022-08-31T00:20:54.750Z,98176.06
2022-08-31T00:23:24.857Z,98166.09
2022-08-31T00:25:51.900Z,98162.22
2022-08-31T00:28:19.858Z,98174.41
2022-08-31T00:30:47.062Z,98176.81
2022-08-31T00:33:15.217Z,98141.25
2022-08-31T00:35:45.238Z,98162.22
2022-08-31T00:38:14.484Z,98182.63
2022-08-31T00:40:47.235Z,98183.16
2022-08-31T00:43:39.471Z,98163.53
2022-08-31T00:46:29.904Z,98179.50
2022-08-31T00:49:02.885Z,98177.28
2022-08-31T00:51:36.437Z,98152.91
2022-08-31T00:54:18.881Z,98171.38
2022-08-31T00:56:47.347Z,98171.38
2022-08-31T00:59:16.513Z,98176.34
2022-08-31T01:01:44.844Z,98154.78
2022-08-31T01:04:11.821Z,98131.84
2022-08-31T01:06:40.027Z,98159.16
2022-08-31T01:09:08.457Z,98164.31
2022-08-31T01:11:37.298Z,98119.59
2022-08-31T01:14:04.240Z,98139.72
2022-08-31T01:16:55.893Z,98156.03
2022-08-31T01:19:39.716Z,98153.78
2022-08-31T01:22:13.192Z,98139.72
2022-08-31T01:24:44.512Z,98130.94
2022-08-31T01:27:12.600Z,98148.66
2022-08-31T01:29:39.312Z,98115.53
2022-08-31T01:32:06.572Z,98139.53
2022-08-31T01:34:34.313Z,98150.84
2022-08-31T01:37:01.597Z,98142.81
2022-08-31T01:39:28.619Z,98114.59
2022-08-31T01:41:55.393Z,98128.16
2022-08-31T01:44:24.683Z,98150.81
2022-08-31T01:46:52.249Z,98143.91
2022-08-31T01:49:22.502Z,98132.66
2022-08-31T01:51:51.167Z,98143.09
2022-08-31T01:54:20.450Z,98153.31
2022-08-31T01:56:48.747Z,98135.59
2022-08-31T01:59:17.991Z,98155.19
2022-08-31T02:01:48.840Z,98160.44
2022-08-31T02:04:18.068Z,98159.56
2022-08-31T02:06:55.758Z,98161.16
2022-08-31T02:09:22.946Z,98161.09
2022-08-31T02:11:50.115Z,98173.22
2022-08-31T02:14:25.512Z,98146.94
2022-08-31T02:16:52.350Z,98160.16
2022-08-31T02:19:19.041Z,98155.78
2022-08-31T02:21:45.719Z,98156.78
2022-08-31T02:24:12.709Z,98161.09
2022-08-31T02:26:40.388Z,98145.38
2022-08-31T02:29:08.746Z,98115.03
2022-08-31T02:31:36.553Z,98168.50
2022-08-31T02:34:06.606Z,98159.97
2022-08-31T02:36:35.833Z,98147.59
2022-08-31T02:39:03.943Z,98164.13
2022-08-31T02:41:32.703Z,98159.03
2022-08-31T02:43:59.400Z,98136.75
2022-08-31T02:46:26.138Z,98136.44
2022-08-31T02:48:53.207Z,98111.16
2022-08-31T02:51:19.954Z,98143.97
2022-08-31T02:53:46.781Z,98146.50
2022-08-31T02:56:22.717Z,98126.81
2022-08-31T02:58:55.474Z,98119.88
2022-08-31T03:01:26.733Z,98134.84
2022-08-31T03:03:53.621Z,98146.50
2022-08-31T03:06:20.471Z,98157.06
2022-08-31T03:08:49.014Z,98139.56
2022-08-31T03:11:17.682Z,98159.16
2022-08-31T03:13:58.618Z,98140.91
2022-08-31T03:16:26.100Z,98154.16
2022-08-31T03:18:52.902Z,98116.59
2022-08-31T03:21:19.564Z,98152.19
2022-08-31T03:23:46.284Z,98144.78
2022-08-31T03:26:13.146Z,98127.44
2022-08-31T03:28:40.320Z,98134.97
2022-08-31T03:31:10.970Z,98168.75
2022-08-31T03:33:38.170Z,98143.66
2022-08-31T03:36:05.746Z,98164.94
2022-08-31T03:38:32.973Z,98145.56
2022-08-31T03:41:01.310Z,98170.66
2022-08-31T03:43:28.056Z,98174.69
2022-08-31T03:45:55.019Z,98170.25
2022-08-31T03:48:21.843Z,98163.84
2022-08-31T03:50:48.726Z,98191.25
2022-08-31T03:53:20.399Z,98185.66
2022-08-31T03:55:54.216Z,98188.91
2022-08-31T03:58:21.510Z,98188.38
2022-08-31T04:00:51.273Z,98208.81
2022-08-31T04:03:18.082Z,98184.53
2022-08-31T04:05:50.226Z,98204.16
2022-08-31T04:08:18.936Z,98197.63
2022-08-31T04:10:49.160Z,98214.94
2022-08-31T04:13:18.066Z,98184.25
2022-08-31T04:15:48.044Z,98199.78
2022-08-31T04:18:16.112Z,98194.75
2022-08-31T04:20:45.862Z,98171.78
2022-08-31T04:23:15.714Z,98152.84
2022-08-31T04:25:43.213Z,98213.06
2022-08-31T04:28:13.038Z,98195.91
2022-08-31T04:30:41.947Z,98221.34
2022-08-31T04:33:09.127Z,98201.22
2022-08-31T04:35:35.951Z,98215.94
2022-08-31T04:38:02.923Z,98209.63
2022-08-31T04:40:29.689Z,98178.94
2022-08-31T04:42:56.444Z,98191.16
2022-08-31T04:45:27.898Z,98184.06
2022-08-31T04:47:54.628Z,98202.75
2022-08-31T04:50:22.655Z,98197.81
2022-08-31T04:53:03.462Z,98197.38
2022-08-31T04:55:30.911Z,98199.38
2022-08-31T04:57:57.544Z,98205.72
2022-08-31T05:00:25.076Z,98224.03
2022-08-31T05:02:54.549Z,98210.81
2022-08-31T05:05:24.797Z,98187.31
2022-08-31T05:07:51.530Z,98215.25
2022-08-31T05:10:18.683Z,98210.28
2022-08-31T05:12:47.946Z,98186.59
2022-08-31T05:15:15.947Z,98199.28
2022-08-31T05:17:44.069Z,98215.63
2022-08-31T05:20:19.957Z,98219.75
2022-08-31T05:22:47.839Z,98196.56
2022-08-31T05:25:14.636Z,98212.56
2022-08-31T05:27:42.983Z,98222.47
2022-08-31T05:30:16.437Z,98209.44
2022-08-31T05:32:44.643Z,98209.13
2022-08-31T05:35:13.038Z,98205.69
2022-08-31T05:37:40.096Z,98227.03
2022-08-31T05:40:07.960Z,98185.91
2022-08-31T05:42:35.753Z,98202.34
2022-08-31T05:45:07.236Z,98229.31
2022-08-31T05:47:34.011Z,98188.66
2022-08-31T05:50:00.800Z,98225.09
2022-08-31T05:52:29.757Z,98228.34
2022-08-31T05:54:56.506Z,98211.88
2022-08-31T05:57:26.473Z,98217.97
2022-08-31T05:59:53.671Z,98214.13
2022-08-31T06:02:20.362Z,98222.16
2022-08-31T06:04:47.168Z,98190.72
2022-08-31T06:07:17.693Z,98211.22
2022-08-31T06:09:44.474Z,98210.22
2022-08-31T06:12:11.482Z,98194.41
2022-08-31T06:14:38.866Z,98217.72
2022-08-31T06:17:07.240Z,98193.84
2022-08-31T06:19:33.943Z,98188.59
2022-08-31T06:22:00.681Z,98212.69
2022-08-31T06:24:28.963Z,98218.41
2022-08-31T06:27:14.375Z,98229.31
2022-08-31T06:29:42.097Z,98206.44
2022-08-31T06:32:11.115Z,98217.50
2022-08-31T06:34:40.383Z,98212.81
2022-08-31T06:37:18.313Z,98227.69
2022-08-31T06:39:48.226Z,98226.25
2022-08-31T06:42:15.376Z,98203.63
2022-08-31T06:44:42.059Z,98213.34
2022-08-31T06:47:08.732Z,98222.06
2022-08-31T06:49:35.420Z,98215.97
2022-08-31T06:52:06.168Z,98219.16
2022-08-31T06:54:32.850Z,98219.59
2022-08-31T06:56:59.928Z,98234.31
2022-08-31T06:59:29.482Z,98227.88
2022-08-31T07:02:01.731Z,98215.19
2022-08-31T07:04:33.775Z,98230.69
2022-08-31T07:07:03.356Z,98201.25
2022-08-31T07:09:30.076Z,98220.31
2022-08-31T07:11:56.789Z,98193.44
2022-08-31T07:14:26.973Z,98229.91
2022-08-31T07:16:59.618Z,98224.91
2022-08-31T07:19:28.054Z,98211.13
2022-08-31T07:21:59.013Z,98234.22
2022-08-31T07:24:45.636Z,98226.19
2022-08-31T07:27:16.366Z,98233.19
2022-08-31T07:29:43.729Z,98227.25
2022-08-31T07:32:12.765Z,98229.75
2022-08-31T07:34:40.330Z,98214.31
2022-08-31T07:37:26.290Z,98222.97
2022-08-31T07:40:14.021Z,98217.06
2022-08-31T07:42:45.010Z,98222.66
2022-08-31T07:45:25.848Z,98224.63
2022-08-31T07:48:01.263Z,98211.63
2022-08-31T07:50:30.730Z,98201.38
2022-08-31T07:52:58.759Z,98187.97
2022-08-31T07:55:29.225Z,98218.66
2022-08-31T07:57:56.763Z,98211.09
2022-08-31T08:00:43.227Z,98220.84
2022-08-31T08:03:13.178Z,98198.66
2022-08-31T08:05:43.288Z,98207.31
2022-08-31T08:08:13.789Z,98216.88
2022-08-31T08:10:46.724Z,98212.47
2022-08-31T08:13:20.901Z,98194.34
2022-08-31T08:15:51.983Z,98182.06
2022-08-31T08:18:22.110Z,98199.28
2022-08-31T08:20:51.974Z,98213.09
2022-08-31T08:23:27.993Z,98216.84
2022-08-31T08:25:57.753Z,98217.41
2022-08-31T08:28:42.880Z,98212.78
2022-08-31T08:31:25.032Z,98194.84
2022-08-31T08:33:52.443Z,98206.25
2022-08-31T08:36:19.711Z,98207.03
2022-08-31T08:38:54.158Z,98206.22
2022-08-31T08:41:23.432Z,98197.72
2022-08-31T08:44:01.004Z,98199.00
2022-08-31T08:46:49.203Z,98186.78
2022-08-31T08:49:20.825Z,98200.75
2022-08-31T08:51:53.597Z,98195.13
2022-08-31T08:54:38.898Z,98199.78
2022-08-31T08:57:14.340Z,98189.75
2022-08-31T08:59:47.106Z,98167.66
2022-08-31T09:02:43.404Z,98190.53
2022-08-31T09:05:25.385Z,98178.53
2022-08-31T09:08:23.774Z,98166.09
2022-08-31T09:11:18.109Z,98160.78
2022-08-31T09:13:53.671Z,98164.44
2022-08-31T09:16:36.778Z,98169.56
2022-08-31T09:19:08.998Z,98143.63
2022-08-31T09:21:49.727Z,98158.50
2022-08-31T09:24:20.909Z,98155.34
2022-08-31T09:27:18.622Z,98141.44
2022-08-31T09:30:06.533Z,98139.25
2022-08-31T09:32:36.258Z,98140.75
2022-08-31T09:35:24.459Z,98133.53
2022-08-31T09:38:10.070Z,98144.97
2022-08-31T09:40:41.516Z,98139.28
2022-08-31T09:43:22.853Z,98155.97
2022-08-31T09:46:30.544Z,98144.06
2022-08-31T09:49:03.443Z,98149.81
2022-08-31T09:51:38.570Z,98145.75
2022-08-31T09:54:47.273Z,98153.63
2022-08-31T09:57:15.126Z,98138.94
2022-08-31T09:59:52.161Z,98145.38
2022-08-31T10:02:38.161Z,98139.25
2022-08-31T10:05:24.275Z,98135.19
2022-08-31T10:08:08.311Z,98133.03
2022-08-31T10:10:41.570Z,98129.53
2022-08-31T10:13:18.194Z,98128.78
2022-08-31T10:16:12.067Z,98126.09
2022-08-31T10:19:13.974Z,98121.00
2022-08-31T10:22:03.618Z,98107.81
2022-08-31T10:24:48.743Z,98107.81
2022-08-31T10:27:20.561Z,98103.94
2022-08-31T10:29:59.996Z,98090.75
2022-08-31T10:32:40.745Z,98039.84
2022-08-31T10:35:19.521Z,98087.41
2022-08-31T10:38:27.022Z,98090.19
2022-08-31T10:41:06.691Z,98088.19
2022-08-31T10:43:44.982Z,98090.75
2022-08-31T10:46:17.612Z,98093.06
2022-08-31T10:48:52.349Z,98079.53
2022-08-31T10:51:46.394Z,98061.25
2022-08-31T10:54:27.358Z,98079.84
2022-08-31T10:57:06.221Z,98073.53
2022-08-31T11:00:10.214Z,98078.00
2022-08-31T11:02:46.182Z,98076.31
2022-08-31T11:05:38.361Z,98047.66
2022-08-31T11:08:38.864Z,98072.63
2022-08-31T11:11:13.147Z,98065.94
2022-08-31T11:14:17.893Z,98090.84
2022-08-31T11:17:19.079Z,98089.91
2022-08-31T11:20:06.883Z,98083.97
2022-08-31T11:22:56.709Z,98076.91
2022-08-31T11:25:38.585Z,98120.50
2022-08-31T11:28:23.653Z,98073.06
2022-08-31T11:30:52.315Z,98041.44
2022-08-31T11:33:28.230Z,98084.41
2022-08-31T11:36:14.949Z,98084.56
2022-08-31T11:39:01.843Z,98097.56
2022-08-31T11:41:31.272Z,98102.78
2022-08-31T11:44:00.498Z,98098.94
2022-08-31T11:46:31.232Z,98103.50
2022-08-31T11:49:01.044Z,98077.78
2022-08-31T11:51:51.424Z,98093.91
2022-08-31T11:54:41.114Z,98118.34
2022-08-31T11:57:16.039Z,98106.47
2022-08-31T11:59:54.716Z,98101.19
2022-08-31T12:02:21.713Z,98106.44
2022-08-31T12:05:13.168Z,98096.81
2022-08-31T12:08:04.288Z,98084.16
2022-08-31T12:10:57.316Z,98089.72
2022-08-31T12:13:31.272Z,98098.66
2022-08-31T12:16:30.209Z,98104.50
2022-08-31T12:19:02.230Z,98075.97
2022-08-31T12:22:07.137Z,98103.75
2022-08-31T12:24:33.761Z,98128.81
2022-08-31T12:27:27.683Z,98078.59
2022-08-31T12:30:12.443Z,98112.88
2022-08-31T12:32:43.274Z,98110.50
2022-08-31T12:35:18.142Z,98109.13
2022-08-31T12:37:45.015Z,98090.06
2022-08-31T12:40:16.962Z,98097.78
2022-08-31T12:42:55.669Z,98096.66
2022-08-31T12:46:04.400Z,98094.13
2022-08-31T12:49:12.279Z,98097.13
2022-08-31T12:51:50.923Z,98085.28
2022-08-31T12:54:35.568Z,98091.94
2022-08-31T12:57:25.761Z,98089.28
2022-08-31T13:00:11.776Z,98053.25
2022-08-31T13:02:45.622Z,98070.78
2022-08-31T13:05:35.205Z,98044.34
2022-08-31T13:08:19.658Z,98025.00
2022-08-31T13:10:47.799Z,98025.78
2022-08-31T13:13:28.676Z,98047.16
2022-08-31T13:16:10.093Z,98025.59
2022-08-31T13:18:40.045Z,98026.72
2022-08-31T13:21:07.193Z,98002.41
2022-08-31T13:23:41.054Z,98009.84
2022-08-31T13:26:23.889Z,97972.91
2022-08-31T13:29:01.275Z,98046.56
2022-08-31T13:31:31.551Z,98051.28
2022-08-31T13:34:08.234Z,98010.13
2022-08-31T13:37:11.729Z,98046.59
2022-08-31T13:39:44.955Z,98038.69
2022-08-31T13:42:33.867Z,98039.59
2022-08-31T13:45:08.254Z,98015.41
2022-08-31T13:47:45.171Z,97997.53
2022-08-31T13:50:26.212Z,98007.81
2022-08-31T13:53:25.506Z,98030.53
2022-08-31T13:55:51.132Z,97990.31
2022-08-31T13:58:29.602Z,97994.75
2022-08-31T14:01:23.871Z,98019.56
2022-08-31T14:03:59.064Z,98010.72
2022-08-31T14:06:50.468Z,98012.34
2022-08-31T14:09:19.311Z,98013.19
2022-08-31T14:12:09.424Z,98017.28
2022-08-31T14:14:43.351Z,97996.03
2022-08-31T14:17:17.496Z,98002.06
2022-08-31T14:19:45.261Z,98008.34
2022-08-31T14:22:36.488Z,98008.91
2022-08-31T14:25:06.715Z,97986.84
2022-08-31T14:27:39.278Z,97995.38
2022-08-31T14:30:09.449Z,97986.84
2022-08-31T14:32:39.725Z,97999.50
2022-08-31T14:35:12.062Z,98007.00
2022-08-31T14:37:44.300Z,98016.91
2022-08-31T14:40:14.115Z,98011.16
2022-08-31T14:42:43.641Z,98033.97
2022-08-31T14:45:20.739Z,98021.56
2022-08-31T14:47:55.545Z,98019.31
2022-08-31T14:50:27.434Z,98003.91
2022-08-31T14:52:55.438Z,98022.66
2022-08-31T14:55:24.887Z,98025.91
2022-08-31T14:58:02.055Z,97998.91
2022-08-31T15:00:31.854Z,98003.56
2022-08-31T15:03:02.573Z,97999.94
2022-08-31T15:05:32.882Z,97980.97
2022-08-31T15:07:59.671Z,98011.81
2022-08-31T15:10:26.771Z,97999.69
2022-08-31T15:12:53.828Z,98014.25
2022-08-31T15:15:23.895Z,97993.09
2022-08-31T15:17:51.868Z,97985.09
2022-08-31T15:20:22.841Z,97965.00
2022-08-31T15:22:50.616Z,97970.53
2022-08-31T15:25:20.030Z,97991.13
2022-08-31T15:27:46.901Z,97970.19
2022-08-31T15:30:16.133Z,98008.16
2022-08-31T15:32:45.365Z,98006.22
2022-08-31T15:35:20.055Z,98008.66
2022-08-31T15:37:56.569Z,97989.66
2022-08-31T15:40:23.795Z,98003.44
2022-08-31T15:42:51.153Z,98005.66
2022-08-31T15:45:18.010Z,98025.25
2022-08-31T15:48:03.824Z,98004.06
2022-08-31T15:50:32.455Z,98016.47
2022-08-31T15:53:09.002Z,97996.41
2022-08-31T15:55:41.320Z,97991.47
2022-08-31T15:58:09.524Z,97989.41
2022-08-31T16:00:37.444Z,97961.75
2022-08-31T16:03:05.228Z,97968.34
2022-08-31T16:05:36.034Z,97980.47
2022-08-31T16:08:02.979Z,97981.84
2022-08-31T16:10:30.863Z,97969.78
2022-08-31T16:12:57.767Z,97962.09
2022-08-31T16:15:25.069Z,97937.34
2022-08-31T16:17:57.269Z,97982.75
2022-08-31T16:20:24.024Z,97954.97
2022-08-31T16:22:58.893Z,97918.63
2022-08-31T16:25:29.004Z,97980.81
2022-08-31T16:27:57.758Z,97968.69
2022-08-31T16:30:24.517Z,97978.06
2022-08-31T16:32:54.282Z,97961.84
2022-08-31T16:35:21.082Z,97981.09
2022-08-31T16:37:47.851Z,97945.59
2022-08-31T16:40:14.736Z,97972.06
2022-08-31T16:42:43.622Z,97989.19
2022-08-31T16:45:15.659Z,97955.28
2022-08-31T16:47:42.310Z,97972.13
2022-08-31T16:50:09.517Z,97988.69
2022-08-31T16:52:36.789Z,98008.50
2022-08-31T16:55:08.093Z,97996.38
2022-08-31T16:57:34.813Z,97966.38
2022-08-31T17:00:06.031Z,97994.72
2022-08-31T17:02:36.427Z,97986.72
2022-08-31T17:05:04.767Z,97987.28
2022-08-31T17:07:32.760Z,97973.81
2022-08-31T17:10:07.621Z,98022.56
2022-08-31T17:12:37.041Z,98005.53
2022-08-31T17:15:04.289Z,97980.44
2022-08-31T17:17:33.352Z,97981.81
2022-08-31T17:20:04.146Z,98015.16
2022-08-31T17:22:33.644Z,97993.13
2022-08-31T17:25:05.025Z,97993.69
2022-08-31T17:27:34.309Z,97990.09
2022-08-31T17:30:07.278Z,98010.75
2022-08-31T17:32:44.995Z,98006.06
2022-08-31T17:35:18.644Z,98005.78
2022-08-31T17:37:45.846Z,98000.78
2022-08-31T17:40:32.378Z,98025.66
2022-08-31T17:43:00.139Z,98011.03
2022-08-31T17:45:27.270Z,97988.13
2022-08-31T17:47:57.578Z,98010.72
2022-08-31T17:50:25.253Z,98003.56
2022-08-31T17:52:52.220Z,98037.22
2022-08-31T17:55:18.944Z,98025.94
2022-08-31T17:57:47.628Z,98028.38
2022-08-31T18:00:15.973Z,98050.44
2022-08-31T18:02:43.560Z,98037.22
2022-08-31T18:05:16.125Z,98062.03
2022-08-31T18:07:49.930Z,98077.44
2022-08-31T18:10:19.252Z,98091.78
2022-08-31T18:12:47.653Z,98109.97
2022-08-31T18:15:19.407Z,98120.19
2022-08-31T18:17:48.773Z,98106.38
2022-08-31T18:20:15.778Z,98101.69
2022-08-31T18:22:43.067Z,98149.94
2022-08-31T18:25:11.077Z,98138.63
2022-08-31T18:27:37.970Z,98132.28
2022-08-31T18:30:07.605Z,98129.53
2022-08-31T18:32:36.730Z,98147.19
2022-08-31T18:35:11.282Z,98162.63
2022-08-31T18:37:40.159Z,98126.78
2022-08-31T18:40:31.912Z,98151.84
2022-08-31T18:43:16.977Z,98130.88
2022-08-31T18:45:49.570Z,98160.66
2022-08-31T18:48:25.481Z,98160.38
2022-08-31T18:50:52.755Z,98134.16
2022-08-31T18:53:29.232Z,98142.47
2022-08-31T18:56:04.666Z,98165.06
2022-08-31T18:58:32.063Z,98152.69
2022-08-31T19:00:59.433Z,98145.22
2022-08-31T19:03:31.582Z,98158.22
2022-08-31T19:05:58.408Z,98152.69
2022-08-31T19:08:29.222Z,98154.63
2022-08-31T19:11:01.102Z,98165.13
2022-08-31T19:13:32.114Z,98135.34
2022-08-31T19:16:07.927Z,98143.59
2022-08-31T19:18:42.255Z,98161.25
2022-08-31T19:21:22.135Z,98157.38
2022-08-31T19:23:49.624Z,98162.06
2022-08-31T19:26:27.717Z,98172.03
2022-08-31T19:28:56.359Z,98180.03
2022-08-31T19:31:25.138Z,98182.47
2022-08-31T19:33:57.071Z,98183.34
2022-08-31T19:36:29.698Z,98165.38
2022-08-31T19:38:56.480Z,98169.81
2022-08-31T19:41:25.407Z,98178.91
2022-08-31T19:44:04.300Z,98148.84
2022-08-31T19:46:35.285Z,98148.56
2022-08-31T19:49:02.563Z,98161.00
2022-08-31T19:51:31.377Z,98195.19
2022-08-31T19:53:59.829Z,98189.94
2022-08-31T19:56:31.126Z,98190.75
2022-08-31T19:58:59.422Z,98186.63
2022-08-31T20:01:33.665Z,98182.22
2022-08-31T20:04:27.111Z,98188.56
2022-08-31T20:06:54.825Z,98178.63
2022-08-31T20:09:22.955Z,98161.25
2022-08-31T20:11:52.404Z,98187.13
2022-08-31T20:14:19.966Z,98164.53
2022-08-31T20:16:52.917Z,98176.13
2022-08-31T20:19:25.346Z,98160.66
2022-08-31T20:22:03.572Z,98170.31
2022-08-31T20:24:30.938Z,98150.75
2022-08-31T20:27:09.348Z,98141.34
2022-08-31T20:29:38.807Z,98166.16
2022-08-31T20:32:08.472Z,98161.22
2022-08-31T20:34:38.081Z,98126.97
2022-08-31T20:37:04.920Z,98164.50
2022-08-31T20:39:35.408Z,98163.91
2022-08-31T20:42:04.036Z,98158.06
2022-08-31T20:44:35.546Z,98182.91
2022-08-31T20:47:31.202Z,98179.28
2022-08-31T20:50:01.041Z,98169.66
2022-08-31T20:52:35.427Z,98151.69
2022-08-31T20:55:04.354Z,98166.53
2022-08-31T20:57:48.411Z,98150.81
2022-08-31T21:00:15.921Z,98167.88
2022-08-31T21:02:44.361Z,98167.03
2022-08-31T21:05:37.116Z,98146.03
2022-08-31T21:08:03.730Z,98155.38
2022-08-31T21:10:37.620Z,98166.47
2022-08-31T21:13:10.251Z,98156.50
2022-08-31T21:15:57.367Z,98162.88
2022-08-31T21:18:24.027Z,98147.34
2022-08-31T21:20:52.589Z,98163.94
2022-08-31T21:23:19.418Z,98159.50
2022-08-31T21:25:46.586Z,98172.72
2022-08-31T21:28:17.405Z,98158.59
2022-08-31T21:30:49.122Z,98184.56
2022-08-31T21:33:41.826Z,98190.03
2022-08-31T21:36:11.619Z,98181.69
2022-08-31T21:38:39.132Z,98180.50
2022-08-31T21:41:13.007Z,98178.56
2022-08-31T21:43:40.097Z,98180.69
2022-08-31T21:46:10.772Z,98164.03
2022-08-31T21:48:40.543Z,98177.06
2022-08-31T21:51:12.355Z,98173.72
2022-08-31T21:53:42.424Z,98132.47
2022-08-31T21:56:10.462Z,98160.69
2022-08-31T21:58:37.220Z,98158.69
2022-08-31T22:01:10.582Z,98161.47
2022-08-31T22:03:39.329Z,98151.41
2022-08-31T22:06:09.276Z,98153.09
2022-08-31T22:08:38.280Z,98158.53
2022-08-31T22:11:13.327Z,98159.41
2022-08-31T22:13:43.965Z,98139.78
2022-08-31T22:16:18.970Z,73496.75
2022-08-31T22:19:06.410Z,98112.22
2022-08-31T22:21:47.286Z,64599.88
2022-08-31T22:24:27.844Z,98146.50
2022-08-31T22:26:57.125Z,118240.56
2022-08-31T22:29:27.111Z,98121.06
2022-08-31T22:31:57.863Z,98132.94
2022-08-31T22:34:25.283Z,98147.84
2022-08-31T22:36:53.164Z,98148.47
2022-08-31T22:39:25.235Z,98127.75
2022-08-31T22:41:53.187Z,98151.41
2022-08-31T22:44:23.257Z,98122.94
2022-08-31T22:46:50.174Z,98123.75
2022-08-31T22:49:17.518Z,98094.66
2022-08-31T22:51:48.671Z,98109.84
2022-08-31T22:54:18.000Z,98129.78
2022-08-31T22:56:45.745Z,98133.38
2022-08-31T22:59:15.753Z,98135.75
2022-08-31T23:01:52.557Z,98132.94
2022-08-31T23:04:23.831Z,98131.25
2022-08-31T23:06:51.952Z,98129.50
2022-08-31T23:09:21.617Z,98120.94
2022-08-31T23:11:51.755Z,64599.88
2022-08-31T23:14:21.147Z,64599.88
2022-08-31T23:16:57.237Z,64599.88
2022-08-31T23:19:31.007Z,64599.88
2022-08-31T23:21:58.935Z,64599.88
2022-08-31T23:24:37.617Z,64599.88
2022-08-31T23:27:07.942Z,64599.88
2022-08-31T23:29:45.733Z,64599.88
2022-08-31T23:32:17.505Z,64599.88
2022-08-31T23:34:46.713Z,64599.88
2022-08-31T23:37:14.259Z,64599.88
2022-08-31T23:39:46.590Z,64599.88
2022-08-31T23:42:18.092Z,64599.88
2022-08-31T23:44:46.711Z,64599.88
2022-08-31T23:47:23.538Z,64599.88
2022-08-31T23:49:51.395Z,64599.88
2022-08-31T23:52:21.601Z,64599.88
2022-08-31T23:54:52.253Z,64599.88
2022-08-31T23:57:31.411Z,64599.88
